Time;durP1;ratioP1;P1;durP2;ratioP2;P2;SDS_P1;SDS_P2;PMS_P1;PMS_P2;Temp;Humidity;BMP_temperature;BMP_pressure;BME280_temperature;BME280_humidity;BME280_pressure;Samples;Min_cycle;Max_cycle;Signal;HPM_P1;HPM_P2
2021/05/26 00:00:43;;;;;;;;;;;;;;;20.92;59.09;101730.66;5068980;28;1365;-64
2021/05/26 00:03:29;;;;;;;;;;;;;;;20.89;58.27;101722.88;5069073;28;1961;-64
2021/05/26 00:06:14;;;;;;;;;;;;;;;20.89;58.43;101721.06;5069215;28;1402;-65
2021/05/26 00:08:59;;;;;;;;;;;;;;;20.89;58.80;101717.56;5053703;28;659;-64
2021/05/26 00:11:45;;;;;;;;;;;;;;;20.91;59.07;101716.59;5068127;28;1294;-64
2021/05/26 00:14:31;;;;;;;;;;;;;;;20.89;59.08;101710.47;5053668;28;746;-64
2021/05/26 00:17:16;;;;;;;;;;;;;;;20.88;58.87;101706.16;5053712;28;1351;-64
2021/05/26 00:20:02;;;;;;;;;;;;;;;20.86;58.21;101702.69;5053570;28;695;-65
2021/05/26 00:22:47;;;;;;;;;;;;;;;20.88;58.68;101692.91;5068953;28;1970;-65
2021/05/26 00:25:32;;;;;;;;;;;;;;;20.86;58.14;101689.44;5068825;28;1354;-64
2021/05/26 00:28:17;;;;;;;;;;;;;;;20.85;57.93;101679.81;5069322;28;660;-64
2021/05/26 00:31:06;;;;;;;;;;;;;;;20.84;57.76;101683.38;5068575;28;1291;-65
2021/05/26 00:33:51;;;;;;;;;;;;;;;20.85;58.17;101678.97;5068666;28;616;-65
2021/05/26 00:36:37;;;;;;;;;;;;;;;20.86;59.14;101665.63;5068721;28;1295;-65
2021/05/26 00:39:22;;;;;;;;;;;;;;;20.88;59.08;101668.22;5068532;28;676;-65
2021/05/26 00:42:07;;;;;;;;;;;;;;;20.89;59.27;101667.25;5068517;28;1910;-65
2021/05/26 00:44:53;;;;;;;;;;;;;;;20.87;59.11;101658.53;5068441;28;722;-64
2021/05/26 00:47:43;;;;;;;;;;;;;;;20.84;58.99;101654.25;5068596;28;1247;-65
2021/05/26 00:50:35;;;;;;;;;;;;;;;20.83;59.11;101646.38;5053350;28;671;-64
2021/05/26 00:53:24;;;;;;;;;;;;;;;20.83;58.66;101649.03;5068642;28;737;-64
2021/05/26 00:56:09;;;;;;;;;;;;;;;20.83;58.35;101651.69;5068498;28;1256;-64
2021/05/26 00:58:54;;;;;;;;;;;;;;;20.81;58.44;101643.81;5053413;28;667;-64
2021/05/26 01:01:40;;;;;;;;;;;;;;;20.83;59.02;101636.66;5068650;28;1354;-64
2021/05/26 01:04:25;;;;;;;;;;;;;;;20.82;58.60;101632.31;5068327;28;726;-64
2021/05/26 01:07:11;;;;;;;;;;;;;;;20.81;58.37;101627.06;5068633;28;1244;-64
2021/05/26 01:09:57;;;;;;;;;;;;;;;20.80;57.97;101628.88;5069062;28;648;-64
2021/05/26 01:12:42;;;;;;;;;;;;;;;20.81;58.63;101627.94;5068523;28;1284;-64
2021/05/26 01:15:28;;;;;;;;;;;;;;;20.82;58.73;101629.66;5068148;28;788;-64
2021/05/26 01:18:27;;;;;;;;;;;;;;;20.81;58.96;101627.94;5068665;28;724;-64
2021/05/26 01:21:15;;;;;;;;;;;;;;;20.81;58.75;101624.44;5068602;28;1259;-65
2021/05/26 01:24:00;;;;;;;;;;;;;;;20.80;58.53;101626.22;5072090;28;1898;-64
2021/05/26 01:26:46;;;;;;;;;;;;;;;20.78;58.46;101622.81;5072308;28;1366;-65
2021/05/26 01:29:32;;;;;;;;;;;;;;;20.79;58.79;101624.53;5071752;28;848;-64
2021/05/26 01:32:17;;;;;;;;;;;;;;;20.78;58.70;101617.50;5071985;28;1233;-66
2021/05/26 01:35:03;;;;;;;;;;;;;;;20.80;58.48;101620.91;5071896;28;777;-64
2021/05/26 01:37:48;;;;;;;;;;;;;;;20.77;58.68;101610.50;5071603;28;1299;-64
2021/05/26 01:40:33;;;;;;;;;;;;;;;20.77;58.70;101615.78;5056404;28;1361;-65
2021/05/26 01:43:22;;;;;;;;;;;;;;;20.78;58.71;101612.22;5071665;28;1964;-65
2021/05/26 01:46:07;;;;;;;;;;;;;;;20.76;58.62;101608.78;5056496;28;1377;-65
2021/05/26 01:48:53;;;;;;;;;;;;;;;20.77;58.74;101610.50;5071617;28;742;-65
2021/05/26 01:51:38;;;;;;;;;;;;;;;20.77;58.56;101605.19;5056243;28;1377;-65
2021/05/26 01:54:23;;;;;;;;;;;;;;;20.75;58.57;101603.56;5071513;28;699;-65
2021/05/26 01:57:08;;;;;;;;;;;;;;;20.73;58.61;101594.84;5056314;28;1325;-65
2021/05/26 01:59:54;;;;;;;;;;;;;;;20.75;58.46;101595.63;5056183;28;829;-66
2021/05/26 02:02:39;;;;;;;;;;;;;;;20.75;58.83;101591.19;5071280;28;2001;-65
2021/05/26 02:05:24;;;;;;;;;;;;;;;20.73;58.60;101595.72;5071090;28;658;-65
2021/05/26 02:08:09;;;;;;;;;;;;;;;20.73;58.74;101587.78;5071524;28;1080;-66
2021/05/26 02:14:00;;;;;;;;;;;;;;;20.75;59.14;101580.59;5071844;28;695;-64
2021/05/26 02:16:46;;;;;;;;;;;;;;;20.73;58.74;101575.38;5070985;28;1279;-65
2021/05/26 02:19:31;;;;;;;;;;;;;;;20.73;58.91;101574.53;5055629;28;704;-65
2021/05/26 02:22:17;;;;;;;;;;;;;;;20.71;58.51;101577.25;5071101;28;1906;-65
2021/05/26 02:25:03;;;;;;;;;;;;;;;20.74;58.93;101570.94;5070940;28;625;-64
2021/05/26 02:27:48;;;;;;;;;;;;;;;20.73;58.59;101563.09;5070637;28;1390;-64
2021/05/26 02:30:34;;;;;;;;;;;;;;;20.69;58.79;101562.38;5055882;28;1241;-65
2021/05/26 02:33:20;;;;;;;;;;;;;;;20.70;58.63;101569.41;5070690;28;636;-65
2021/05/26 02:36:05;;;;;;;;;;;;;;;20.69;58.85;101570.31;5070684;28;1229;-65
2021/05/26 02:38:51;;;;;;;;;;;;;;;20.70;58.76;101569.41;5070752;28;1446;-66
2021/05/26 02:41:37;;;;;;;;;;;;;;;20.68;58.94;101563.31;5070841;28;1260;-66
2021/05/26 02:44:22;;;;;;;;;;;;;;;20.67;58.72;101561.63;5070509;28;1906;-66
2021/05/26 02:47:07;;;;;;;;;;;;;;;20.69;59.02;101555.31;5070989;28;1308;-65
2021/05/26 02:49:53;;;;;;;;;;;;;;;20.68;58.68;101553.59;5071009;28;699;-65
2021/05/26 02:52:38;;;;;;;;;;;;;;;20.68;58.70;101552.72;5070859;28;1372;-66
2021/05/26 02:55:25;;;;;;;;;;;;;;;20.69;58.81;101555.31;5070971;28;666;-65
2021/05/26 02:58:10;;;;;;;;;;;;;;;20.66;58.67;101550.16;5070756;28;1109;-66
2021/05/26 03:00:56;;;;;;;;;;;;;;;20.65;58.39;101558.19;5070182;28;1270;-66
2021/05/26 03:03:42;;;;;;;;;;;;;;;20.65;58.68;101547.59;5070504;28;1902;-66
2021/05/26 03:06:27;;;;;;;;;;;;;;;20.65;58.37;101542.28;5070196;28;1271;-66
2021/05/26 03:09:13;;;;;;;;;;;;;;;20.64;58.58;101546.72;5070415;28;640;-65
2021/05/26 03:11:58;;;;;;;;;;;;;;;20.65;58.81;101539.66;5069698;28;1279;-66
2021/05/26 03:14:43;;;;;;;;;;;;;;;20.67;58.86;101546.56;5069952;28;612;-64
2021/05/26 03:17:29;;;;;;;;;;;;;;;20.67;58.79;101535.97;5070217;28;1362;-66
2021/05/26 03:20:15;;;;;;;;;;;;;;;20.63;58.70;101533.59;5070016;28;628;-66
2021/05/26 03:23:00;;;;;;;;;;;;;;;20.63;58.76;101537.09;5054582;28;1898;-65
2021/05/26 03:25:47;;;;;;;;;;;;;;;20.64;58.53;101535.28;5069790;28;1291;-66
2021/05/26 03:28:33;;;;;;;;;;;;;;;20.60;58.58;101537.25;5070041;28;671;-67
2021/05/26 03:31:18;;;;;;;;;;;;;;;20.63;58.90;101528.28;5069658;28;1280;-65
2021/05/26 03:34:03;;;;;;;;;;;;;;;20.64;58.61;101540.56;5069956;28;655;-67
2021/05/26 03:36:49;;;;;;;;;;;;;;;20.64;58.72;101530.84;5069480;28;1343;-65
2021/05/26 03:39:34;;;;;;;;;;;;;;;20.61;58.11;101530.13;5069380;28;668;-67
2021/05/26 03:42:19;;;;;;;;;;;;;;;20.60;58.63;101531.09;5069273;28;1590;-65
2021/05/26 03:45:08;;;;;;;;;;;;;;;20.60;58.53;101528.44;5069541;28;679;-65
2021/05/26 03:47:53;;;;;;;;;;;;;;;20.62;58.53;101529.22;5069473;28;1311;-65
2021/05/26 03:50:39;;;;;;;;;;;;;;;20.60;58.25;101523.16;5069339;28;1295;-67
2021/05/26 03:53:24;;;;;;;;;;;;;;;20.59;57.85;101521.44;5069557;28;672;-66
2021/05/26 03:56:09;;;;;;;;;;;;;;;20.57;58.28;101518.03;5069591;28;1381;-64
2021/05/26 03:58:58;;;;;;;;;;;;;;;20.59;58.62;101518.78;5069081;28;663;-65
2021/05/26 04:01:43;;;;;;;;;;;;;;;20.58;58.46;101522.34;5069199;28;1330;-65
2021/05/26 04:04:28;;;;;;;;;;;;;;;20.57;58.24;101507.44;5069070;28;1913;-65
2021/05/26 04:07:13;;;;;;;;;;;;;;;20.58;58.35;101507.34;5069408;28;1388;-65
2021/05/26 04:09:58;;;;;;;;;;;;;;;20.57;58.34;101507.44;5068932;28;661;-66
2021/05/26 04:12:44;;;;;;;;;;;;;;;20.58;58.41;101509.13;5069562;28;1418;-66
2021/05/26 04:15:29;;;;;;;;;;;;;;;20.59;58.88;101506.41;5068691;28;1273;-66
2021/05/26 04:18:14;;;;;;;;;;;;;;;20.56;58.35;101503.06;5069183;28;655;-67
2021/05/26 04:20:59;;;;;;;;;;;;;;;20.56;58.38;101508.38;5068682;28;1295;-67
2021/05/26 04:23:45;;;;;;;;;;;;;;;20.56;58.49;101497.78;5068723;28;1971;-65
2021/05/26 04:26:30;;;;;;;;;;;;;;;20.55;58.61;101510.16;5068438;28;1383;-65
2021/05/26 04:29:18;;;;;;;;;;;;;;;20.54;58.65;101503.16;5053517;28;625;-66
2021/05/26 04:32:04;;;;;;;;;;;;;;;20.53;58.28;101505.88;5068736;28;1291;-65
2021/05/26 04:34:49;;;;;;;;;;;;;;;20.54;58.44;101507.59;5068570;28;683;-66
2021/05/26 04:37:34;;;;;;;;;;;;;;;20.54;58.41;101503.16;5068655;28;1274;-66
2021/05/26 04:40:19;;;;;;;;;;;;;;;20.53;58.47;101511.16;5068716;28;660;-65
2021/05/26 04:43:05;;;;;;;;;;;;;;;20.56;58.84;101511.00;5068926;28;1898;-65
2021/05/26 04:45:50;;;;;;;;;;;;;;;20.55;58.60;101504.84;5068311;28;1272;-65
2021/05/26 04:48:35;;;;;;;;;;;;;;;20.53;58.63;101512.03;5068542;28;707;-64
2021/05/26 04:51:21;;;;;;;;;;;;;;;20.52;58.64;101505.03;5068542;28;1314;-64
2021/05/26 04:54:06;;;;;;;;;;;;;;;20.53;58.59;101506.75;5053332;28;659;-64
2021/05/26 04:56:51;;;;;;;;;;;;;;;20.52;58.04;101512.97;5068705;28;1424;-65
2021/05/26 04:59:37;;;;;;;;;;;;;;;20.52;58.67;101506.81;5073093;28;632;-64
2021/05/26 05:02:22;;;;;;;;;;;;;;;20.55;58.50;101506.63;5057624;28;1290;-65
2021/05/26 05:05:08;;;;;;;;;;;;;;;20.51;57.98;101502.47;5072346;28;1945;-64
2021/05/26 05:07:53;;;;;;;;;;;;;;;20.49;57.97;101510.47;5072902;28;1386;-64
2021/05/26 05:10:39;;;;;;;;;;;;;;;20.50;57.94;101503.41;5057221;28;1275;-65
2021/05/26 05:13:24;;;;;;;;;;;;;;;20.51;57.89;101508.63;5073051;28;706;-66
2021/05/26 05:16:09;;;;;;;;;;;;;;;20.51;58.23;101510.41;5072468;28;1256;-68
2021/05/26 05:18:55;;;;;;;;;;;;;;;20.62;58.70;101508.03;5072804;28;699;-66
2021/05/26 05:21:40;;;;;;;;;;;;;;;20.59;58.05;101519.66;5056674;28;1292;-66
2021/05/26 05:24:26;;;;;;;;;;;;;;;20.55;58.26;101514.59;5072193;28;1969;-66
2021/05/26 05:27:11;;;;;;;;;;;;;;;20.54;58.27;101510.25;5072237;28;1155;-66
2021/05/26 05:29:57;;;;;;;;;;;;;;;20.56;58.73;101516.31;5070943;28;1416;-64
2021/05/26 05:32:42;;;;;;;;;;;;;;;20.53;58.33;101514.69;5070397;28;1401;-65
2021/05/26 05:35:28;;;;;;;;;;;;;;;20.55;58.81;101519.88;5055590;28;605;-66
2021/05/26 05:38:13;;;;;;;;;;;;;;;20.56;59.09;101521.59;5070786;28;1529;-66
2021/05/26 05:40:58;;;;;;;;;;;;;;;20.58;58.78;101523.22;5070392;28;1386;-66
2021/05/26 05:43:43;;;;;;;;;;;;;;;20.62;59.04;101523.91;5070475;28;1898;-65
2021/05/26 05:46:29;;;;;;;;;;;;;;;20.62;58.30;101522.13;5056115;28;1358;-63
2021/05/26 05:49:17;;;;;;;;;;;;;;;20.56;58.49;101526.88;5070497;28;655;-63
2021/05/26 05:52:02;;;;;;;;;;;;;;;20.59;58.70;101522.28;5070753;28;1272;-64
2021/05/26 05:54:49;;;;;;;;;;;;;;;20.56;57.84;101522.47;5070683;28;672;-64
2021/05/26 05:57:37;;;;;;;;;;;;;;;20.63;58.39;101526.50;5070792;28;1267;-63
2021/05/26 06:00:22;;;;;;;;;;;;;;;20.63;58.08;101513.28;5070380;28;637;-66
2021/05/26 06:03:07;;;;;;;;;;;;;;;20.74;59.15;101520.63;5071421;28;1906;-63
2021/05/26 06:05:53;;;;;;;;;;;;;;;20.69;58.51;101526.19;5071251;28;1303;-64
2021/05/26 06:08:39;;;;;;;;;;;;;;;20.67;58.88;101529.84;5070172;28;644;-66
2021/05/26 06:11:24;;;;;;;;;;;;;;;20.62;57.85;101526.56;5070676;28;1496;-64
2021/05/26 06:14:10;;;;;;;;;;;;;;;20.59;58.01;101526.72;5070935;28;699;-65
2021/05/26 06:16:55;;;;;;;;;;;;;;;20.57;57.72;101536.56;5070795;28;1660;-65
2021/05/26 06:19:41;;;;;;;;;;;;;;;20.65;58.55;101532.56;5069709;28;652;-63
2021/05/26 06:22:26;;;;;;;;;;;;;;;20.62;58.39;101529.22;5069677;28;1355;-65
2021/05/26 06:25:12;;;;;;;;;;;;;;;20.59;57.95;101534.66;5068717;28;1910;-64
2021/05/26 06:27:57;;;;;;;;;;;;;;;20.59;58.10;101532.03;5070287;28;1112;-63
2021/05/26 06:30:42;;;;;;;;;;;;;;;20.65;58.56;101534.34;5070085;28;1284;-62
2021/05/26 06:33:28;;;;;;;;;;;;;;;20.64;58.22;101532.63;5068762;28;1929;-63
2021/05/26 06:36:13;;;;;;;;;;;;;;;20.64;59.13;101524.69;5068586;28;1301;-64
2021/05/26 06:38:59;;;;;;;;;;;;;;;20.76;58.79;101526.72;5071511;28;1472;-64
2021/05/26 06:41:45;;;;;;;;;;;;;;;20.82;59.35;101529.03;5072991;28;1255;-64
2021/05/26 06:44:30;;;;;;;;;;;;;;;20.81;59.50;101527.31;5089435;28;1907;-64
2021/05/26 06:47:16;;;;;;;;;;;;;;;20.83;59.76;101529.88;5049333;28;1369;-63
2021/05/26 06:50:02;;;;;;;;;;;;;;;20.82;59.86;101523.75;5064526;28;1550;-64
2021/05/26 06:52:47;;;;;;;;;;;;;;;20.84;59.91;101526.28;5088926;28;1604;-64
2021/05/26 06:55:33;;;;;;;;;;;;;;;20.83;60.00;101509.53;5068560;28;1287;-64
2021/05/26 06:58:19;;;;;;;;;;;;;;;20.87;60.61;101511.09;5068724;28;1427;-65
2021/05/26 07:01:04;;;;;;;;;;;;;;;20.86;59.36;101512.03;5068090;28;1273;-65
2021/05/26 07:03:50;;;;;;;;;;;;;;;20.75;58.14;101516.19;5052846;28;1898;-65
2021/05/26 07:06:35;;;;;;;;;;;;;;;20.78;58.47;101516.03;5076997;28;1576;-63
2021/05/26 07:09:21;;;;;;;;;;;;;;;20.81;58.90;101516.72;5068447;28;666;-63
2021/05/26 07:12:07;;;;;;;;;;;;;;;20.84;59.40;101515.69;5068371;28;1251;-64
2021/05/26 07:14:52;;;;;;;;;;;;;;;20.85;59.48;101512.13;5068789;28;632;-64
2021/05/26 07:17:38;;;;;;;;;;;;;;;20.94;60.00;101511.63;5068703;28;1282;-66
2021/05/26 07:20:23;;;;;;;;;;;;;;;20.89;59.87;101503.06;5067741;28;715;-66
2021/05/26 07:23:09;;;;;;;;;;;;;;;20.87;60.35;101502.28;5072709;28;1525;-65
2021/05/26 07:25:54;;;;;;;;;;;;;;;20.93;60.33;101508.13;5073577;28;1259;-65
2021/05/26 07:28:41;;;;;;;;;;;;;;;20.88;59.87;101504.88;5066612;28;1326;-66
2021/05/26 07:31:26;;;;;;;;;;;;;;;20.86;59.95;101503.22;5066823;28;1209;-67
2021/05/26 07:34:12;;;;;;;;;;;;;;;20.84;59.75;101500.66;5067589;28;703;-65
2021/05/26 07:36:58;;;;;;;;;;;;;;;20.83;59.81;101496.31;5066573;28;1331;-65
2021/05/26 07:39:43;;;;;;;;;;;;;;;20.84;59.89;101489.22;5066768;28;738;-65
2021/05/26 07:42:28;;;;;;;;;;;;;;;20.83;59.74;101493.66;5067042;28;1229;-65
2021/05/26 07:45:14;;;;;;;;;;;;;;;20.83;59.58;101493.66;5067052;28;1906;-65
2021/05/26 07:47:59;;;;;;;;;;;;;;;20.84;59.74;101486.56;5068233;28;1058;-65
2021/05/26 07:50:45;;;;;;;;;;;;;;;20.83;59.41;101488.34;5067713;28;1260;-65
2021/05/26 07:53:31;;;;;;;;;;;;;;;20.84;59.64;101494.50;5067943;28;740;-65
2021/05/26 07:56:16;;;;;;;;;;;;;;;20.83;59.52;101495.44;5067697;28;1282;-66
2021/05/26 07:59:01;;;;;;;;;;;;;;;20.83;59.12;101498.94;5080054;28;1506;-64
2021/05/26 08:01:46;;;;;;;;;;;;;;;20.83;59.46;101498.94;5059295;28;1325;-65
2021/05/26 08:04:31;;;;;;;;;;;;;;;20.85;59.81;101490.94;5067759;28;1906;-64
2021/05/26 08:07:17;;;;;;;;;;;;;;;20.95;59.61;101489.47;5067509;28;1358;-62
2021/05/26 08:10:05;;;;;;;;;;;;;;;20.94;59.22;101482.50;5067426;28;620;-66
2021/05/26 08:12:51;;;;;;;;;;;;;;;20.92;59.07;101481.69;5067543;28;1390;-65
2021/05/26 08:15:37;;;;;;;;;;;;;;;20.93;59.11;101492.22;5067319;28;1236;-63
2021/05/26 08:18:27;;;;;;;;;;;;;;;20.95;59.03;101478.88;5067256;28;683;-66
2021/05/26 08:21:15;;;;;;;;;;;;;;;20.95;59.14;101471.81;5067529;28;1363;-66
2021/05/26 08:24:00;;;;;;;;;;;;;;;20.95;59.03;101461.22;5066577;28;1894;-69
2021/05/26 08:26:48;;;;;;;;;;;;;;;20.94;59.05;101459.53;5067276;28;1339;-70
2021/05/26 08:29:34;;;;;;;;;;;;;;;20.94;59.32;101458.66;5067351;28;1276;-68
2021/05/26 08:32:21;;;;;;;;;;;;;;;20.96;59.56;101452.34;5065631;28;1346;-68
2021/05/26 08:35:06;;;;;;;;;;;;;;;20.97;59.46;101456.69;5065989;28;700;-68
2021/05/26 08:37:51;;;;;;;;;;;;;;;20.97;59.27;101448.75;5066920;28;1407;-68
2021/05/26 08:40:37;;;;;;;;;;;;;;;20.95;59.44;101450.63;5052321;28;1327;-68
2021/05/26 08:43:24;;;;;;;;;;;;;;;20.96;59.17;101444.38;5067274;28;1560;-67
2021/05/26 08:46:09;;;;;;;;;;;;;;;20.95;59.49;101440.03;5077670;28;1435;-67
2021/05/26 08:48:57;;;;;;;;;;;;;;;20.96;59.50;101439.09;5059734;28;1506;-67
2021/05/26 08:51:43;;;;;;;;;;;;;;;20.96;59.44;101444.38;5066607;28;1256;-67
2021/05/26 08:54:29;;;;;;;;;;;;;;;20.97;59.36;101439.94;5066904;28;636;-67
2021/05/26 08:57:14;;;;;;;;;;;;;;;20.96;59.23;101443.53;5067067;28;1218;-68
2021/05/26 09:00:00;;;;;;;;;;;;;;;20.96;59.25;101447.03;5046838;28;680;-68
2021/05/26 09:02:45;;;;;;;;;;;;;;;20.96;59.45;101447.03;5047284;28;1415;-68
2021/05/26 09:05:31;;;;;;;;;;;;;;;20.96;59.14;101441.75;5046955;28;1910;-68
2021/05/26 09:08:23;;;;;;;;;;;;;;;20.97;59.63;101439.94;5047106;28;660;-68
2021/05/26 09:11:08;;;;;;;;;;;;;;;20.96;59.50;101441.75;5046738;28;1272;-68
2021/05/26 09:13:54;;;;;;;;;;;;;;;20.95;59.39;101440.03;5046658;28;739;-68
2021/05/26 09:16:39;;;;;;;;;;;;;;;20.96;59.44;101439.09;5047283;28;1252;-69
2021/05/26 09:19:25;;;;;;;;;;;;;;;20.96;59.21;101431.16;5081178;28;1542;-68
2021/05/26 09:22:12;;;;;;;;;;;;;;;20.96;59.38;101438.22;5087101;28;1272;-68
2021/05/26 09:25:05;;;;;;;;;;;;;;;20.96;59.52;101430.28;5087052;28;1930;-69
2021/05/26 09:28:11;;;;;;;;;;;;;;;20.95;59.65;101432.06;5087621;28;1281;-69
2021/05/26 09:31:05;;;;;;;;;;;;;;;20.98;59.55;101441.63;5077934;28;1523;-68
2021/05/26 09:33:52;;;;;;;;;;;;;;;21.00;59.89;101438.00;5065593;28;1246;-73
2021/05/26 09:36:37;;;;;;;;;;;;;;;21.00;59.85;101437.13;5067534;28;1294;-68
2021/05/26 09:39:42;;;;;;;;;;;;;;;20.98;59.87;101434.56;5067051;28;608;-68
2021/05/26 09:42:36;;;;;;;;;;;;;;;20.99;59.61;101435.41;5067356;28;1272;-69
2021/05/26 09:45:29;;;;;;;;;;;;;;;20.99;59.43;101441.56;5070417;28;1978;-67
2021/05/26 09:48:34;;;;;;;;;;;;;;;20.99;59.65;101435.41;5070561;28;644;-68
2021/05/26 09:51:27;;;;;;;;;;;;;;;20.99;59.44;101440.72;5070437;28;1270;-70
2021/05/26 09:54:20;;;;;;;;;;;;;;;20.99;59.77;101435.41;5050277;28;711;-69
2021/05/26 09:57:06;;;;;;;;;;;;;;;20.98;59.40;101423.97;5050592;28;1346;-70
2021/05/26 09:59:52;;;;;;;;;;;;;;;20.98;59.72;101434.56;5049823;28;629;-69
2021/05/26 10:02:37;;;;;;;;;;;;;;;20.98;59.79;101429.25;5050261;28;1394;-68
2021/05/26 10:05:24;;;;;;;;;;;;;;;20.99;59.67;101430.97;5049985;28;1938;-70
2021/05/26 10:08:14;;;;;;;;;;;;;;;20.99;59.95;101428.34;5050151;28;970;-68
2021/05/26 10:10:59;;;;;;;;;;;;;;;20.98;59.96;101418.66;5049510;28;1225;-69
2021/05/26 10:13:46;;;;;;;;;;;;;;;20.98;60.02;101413.38;5049588;28;695;-69
2021/05/26 10:16:33;;;;;;;;;;;;;;;20.99;60.04;101419.53;5050202;28;1272;-69
2021/05/26 10:19:18;;;;;;;;;;;;;;;20.97;60.02;101414.31;5050033;28;634;-70
2021/05/26 10:22:04;;;;;;;;;;;;;;;20.97;59.97;101422.28;5049972;28;1326;-71
2021/05/26 10:24:50;;;;;;;;;;;;;;;20.96;59.98;101415.25;5050357;28;1914;-70
2021/05/26 10:27:49;;;;;;;;;;;;;;;20.98;60.08;101412.50;5065947;28;1744;-66
2021/05/26 10:30:47;;;;;;;;;;;;;;;20.98;60.14;101408.06;5056566;28;1323;-71
2021/05/26 10:33:42;;;;;;;;;;;;;;;21.00;60.21;101405.34;5068193;28;702;-68
2021/05/26 10:36:27;;;;;;;;;;;;;;;20.98;60.25;101408.06;5048462;28;1279;-69
2021/05/26 10:39:27;;;;;;;;;;;;;;;20.98;60.21;101405.41;5049174;28;1085;-69
2021/05/26 10:42:32;;;;;;;;;;;;;;;20.98;60.29;101397.47;5049485;28;1218;-69
2021/05/26 10:45:19;;;;;;;;;;;;;;;21.02;60.20;101393.72;5048457;28;1965;-69
2021/05/26 10:48:14;;;;;;;;;;;;;;;21.01;59.88;101386.72;5048131;28;680;-68
2021/05/26 10:50:59;;;;;;;;;;;;;;;21.01;59.75;101389.34;5050967;28;1612;-70
2021/05/26 10:53:45;;;;;;;;;;;;;;;21.04;59.69;101381.25;5066785;28;933;-69
2021/05/26 10:56:37;;;;;;;;;;;;;;;21.07;59.85;101378.41;5068091;28;1284;-68
2021/05/26 10:59:22;;;;;;;;;;;;;;;21.10;60.00;101380.06;5067080;28;1167;-72
2021/05/26 11:02:11;;;;;;;;;;;;;;;21.12;60.16;101386.16;5068529;28;1252;-69
2021/05/26 11:05:16;;;;;;;;;;;;;;;21.15;59.82;101372.72;5067931;28;1914;-66
2021/05/26 11:08:20;;;;;;;;;;;;;;;21.15;59.60;101380.69;5066644;28;1220;-69
2021/05/26 11:11:15;;;;;;;;;;;;;;;21.15;59.83;101384.19;5067987;28;1228;-68
2021/05/26 11:14:04;;;;;;;;;;;;;;;21.17;60.31;101387.59;5068368;28;1561;-66
2021/05/26 11:16:50;;;;;;;;;;;;;;;21.17;60.25;101377.00;5057263;28;1395;-66
2021/05/26 11:19:35;;;;;;;;;;;;;;;21.18;60.10;101373.41;5080753;28;1514;-66
2021/05/26 11:22:24;;;;;;;;;;;;;;;21.16;59.73;101369.97;5088138;28;1553;-65
2021/05/26 11:25:10;;;;;;;;;;;;;;;21.17;59.76;101349.63;5067361;28;1910;-65
2021/05/26 11:27:55;;;;;;;;;;;;;;;21.19;59.83;101351.25;5067572;28;1067;-66
2021/05/26 11:30:41;;;;;;;;;;;;;;;21.17;59.75;101345.19;5064492;28;1516;-64
2021/05/26 11:33:27;;;;;;;;;;;;;;;21.17;59.43;101341.69;5067536;28;639;-67
2021/05/26 11:36:14;;;;;;;;;;;;;;;21.14;59.45;101340.09;5067590;28;1286;-65
2021/05/26 11:39:14;;;;;;;;;;;;;;;21.15;59.12;101344.44;5067471;28;1489;-65
2021/05/26 11:42:09;;;;;;;;;;;;;;;21.17;58.99;101334.59;5067161;28;1210;-65
2021/05/26 11:45:00;;;;;;;;;;;;;;;21.16;59.10;101332.88;5064523;28;1902;-66
2021/05/26 11:47:47;;;;;;;;;;;;;;;21.19;58.74;101321.25;5066606;28;1300;-66
2021/05/26 11:50:32;;;;;;;;;;;;;;;21.19;58.86;101321.25;5047259;28;1310;-66
2021/05/26 11:53:18;;;;;;;;;;;;;;;21.20;59.06;101321.19;5050236;28;970;-67
2021/05/26 11:56:03;;;;;;;;;;;;;;;21.21;59.00;101314.94;5066609;28;1353;-65
2021/05/26 11:58:48;;;;;;;;;;;;;;;21.21;58.94;101317.59;5066478;28;981;-66
2021/05/26 12:01:34;;;;;;;;;;;;;;;21.35;58.47;101318.56;5066518;28;1273;-65
2021/05/26 12:04:21;;;;;;;;;;;;;;;21.35;58.69;101313.25;5066465;28;977;-66
2021/05/26 12:07:08;;;;;;;;;;;;;;;21.37;58.91;101306.09;5051718;28;1258;-65
2021/05/26 12:10:00;;;;;;;;;;;;;;;21.32;59.17;101306.34;5066387;28;1023;-64
2021/05/26 12:13:02;;;;;;;;;;;;;;;21.38;59.79;101306.00;5067042;28;1308;-62
2021/05/26 12:15:47;;;;;;;;;;;;;;;21.42;59.59;101302.22;5067216;28;1279;-65
2021/05/26 12:18:34;;;;;;;;;;;;;;;21.41;59.44;101300.50;5066731;28;640;-67
2021/05/26 12:21:23;;;;;;;;;;;;;;;21.43;59.48;101295.97;5067408;28;1357;-63
2021/05/26 12:24:14;;;;;;;;;;;;;;;21.51;59.75;101290.22;5066454;28;1530;-63
2021/05/26 12:27:02;;;;;;;;;;;;;;;21.52;60.04;101297.22;5055105;28;1390;-62
2021/05/26 12:29:48;;;;;;;;;;;;;;;21.51;59.81;101298.16;5060360;28;917;-62
2021/05/26 12:32:33;;;;;;;;;;;;;;;21.48;60.22;101304.50;5065730;28;1374;-62
2021/05/26 12:35:19;;;;;;;;;;;;;;;21.45;60.10;101304.69;5066559;28;898;-63
2021/05/26 12:38:19;;;;;;;;;;;;;;;21.47;60.45;101305.44;5066962;28;1262;-65
2021/05/26 12:41:23;;;;;;;;;;;;;;;21.47;60.21;101289.53;5066908;28;1299;-64
2021/05/26 12:44:08;;;;;;;;;;;;;;;21.46;60.25;101281.69;5067422;28;1064;-64
2021/05/26 12:46:59;;;;;;;;;;;;;;;21.46;59.91;101279.03;5066861;28;1965;-65
2021/05/26 12:49:48;;;;;;;;;;;;;;;21.51;59.98;101276.97;5051694;28;1010;-64
2021/05/26 12:52:33;;;;;;;;;;;;;;;21.52;60.39;101265.44;5067528;28;1359;-66
2021/05/26 12:55:23;;;;;;;;;;;;;;;21.56;60.03;101277.53;5066831;28;977;-63
2021/05/26 12:58:16;;;;;;;;;;;;;;;21.53;60.27;101262.66;5066997;28;1163;-62
2021/05/26 13:01:08;;;;;;;;;;;;;;;21.48;60.15;101248.00;5066697;28;1302;-64
2021/05/26 13:03:53;;;;;;;;;;;;;;;21.52;60.31;101260.13;5066855;28;1076;-61
2021/05/26 13:06:43;;;;;;;;;;;;;;;21.52;60.23;101260.13;5066911;28;1906;-62
2021/05/26 13:09:29;;;;;;;;;;;;;;;21.47;60.27;101246.28;5067306;28;1024;-64
2021/05/26 13:12:24;;;;;;;;;;;;;;;21.51;60.45;101253.97;5067231;28;1390;-63
2021/05/26 13:15:29;;;;;;;;;;;;;;;21.51;60.52;101248.66;5050856;28;1033;-62
2021/05/26 13:18:15;;;;;;;;;;;;;;;21.51;60.48;101243.38;5067837;28;620;-63
2021/05/26 13:21:01;;;;;;;;;;;;;;;21.55;61.03;101239.56;5069100;28;1376;-63
2021/05/26 13:23:47;;;;;;;;;;;;;;;21.54;60.22;101224.63;5072404;28;1441;-62
2021/05/26 13:26:34;;;;;;;;;;;;;;;21.52;60.86;101223.84;5069797;28;1972;-62
2021/05/26 13:29:19;;;;;;;;;;;;;;;21.50;60.54;101222.22;5070465;28;1025;-64
2021/05/26 13:32:05;;;;;;;;;;;;;;;21.50;60.61;101214.28;5069458;28;1712;-62
2021/05/26 13:34:50;;;;;;;;;;;;;;;21.51;60.62;101221.31;5068927;28;1077;-64
2021/05/26 13:37:35;;;;;;;;;;;;;;;21.50;60.61;101216.94;5068707;28;1839;-65
2021/05/26 13:40:23;;;;;;;;;;;;;;;21.49;61.30;101217.91;5057865;28;1150;-64
2021/05/26 13:43:09;;;;;;;;;;;;;;;21.48;61.00;101211.75;5050001;28;1072;-63
2021/05/26 13:45:54;;;;;;;;;;;;;;;21.49;61.10;101228.50;5067465;28;1909;-64
2021/05/26 13:48:40;;;;;;;;;;;;;;;21.48;61.10;101226.78;5069785;28;703;-63
2021/05/26 13:51:25;;;;;;;;;;;;;;;21.51;61.04;101218.66;5049424;28;1230;-66
2021/05/26 13:54:11;;;;;;;;;;;;;;;21.53;60.74;101214.94;5063752;28;914;-69
2021/05/26 13:56:56;;;;;;;;;;;;;;;21.53;61.14;101212.31;5069436;28;1370;-67
2021/05/26 13:59:42;;;;;;;;;;;;;;;21.52;61.08;101217.72;5070159;28;949;-67
2021/05/26 14:02:27;;;;;;;;;;;;;;;21.51;60.81;101208.03;5070099;28;1294;-68
2021/05/26 14:05:16;;;;;;;;;;;;;;;21.50;60.79;101212.50;5069756;28;1906;-67
2021/05/26 14:08:01;;;;;;;;;;;;;;;21.51;61.01;101200.09;5070625;28;1215;-68
2021/05/26 14:10:47;;;;;;;;;;;;;;;21.50;61.42;101193.06;5054264;28;1339;-67
2021/05/26 14:13:32;;;;;;;;;;;;;;;21.49;61.37;101180.78;5069545;28;632;-68
2021/05/26 14:16:18;;;;;;;;;;;;;;;21.50;60.99;101177.19;5049681;28;1274;-65
2021/05/26 14:19:03;;;;;;;;;;;;;;;21.51;60.92;101178.88;5037587;28;1040;-70
2021/05/26 14:21:48;;;;;;;;;;;;;;;21.52;60.95;101172.66;5054457;28;1272;-66
2021/05/26 14:24:34;;;;;;;;;;;;;;;21.51;61.01;101170.94;5053908;28;962;-67
2021/05/26 14:27:19;;;;;;;;;;;;;;;21.53;61.05;101161.09;5053727;28;1961;-65
2021/05/26 14:30:08;;;;;;;;;;;;;;;21.53;60.64;101167.25;5067869;28;1404;-67
2021/05/26 14:32:53;;;;;;;;;;;;;;;21.63;61.34;101156.91;5070767;28;1292;-66
2021/05/26 14:35:38;;;;;;;;;;;;;;;21.61;60.92;101161.47;5070778;28;1287;-67